sensor_id;sensor_type;location;lat;lon;timestamp;P1;durP1;ratioP1;P2;durP2;ratioP2
13897;SDS011;7019;50.766;4.474;2022-09-13T00:02:16;4.30;;;3.47;;
13897;SDS011;7019;50.766;4.474;2022-09-13T00:04:43;5.23;;;3.57;;
13897;SDS011;7019;50.766;4.474;2022-09-13T00:07:10;4.33;;;3.93;;
13897;SDS011;7019;50.766;4.474;2022-09-13T00:09:38;5.13;;;4.53;;
13897;SDS011;7019;50.766;4.474;2022-09-13T00:12:06;5.17;;;4.67;;
13897;SDS011;7019;50.766;4.474;2022-09-13T00:14:33;7.43;;;6.30;;
13897;SDS011;7019;50.766;4.474;2022-09-13T00:17:00;7.60;;;5.83;;
13897;SDS011;7019;50.766;4.474;2022-09-13T00:19:27;7.67;;;6.87;;
13897;SDS011;7019;50.766;4.474;2022-09-13T00:21:54;8.53;;;6.17;;
13897;SDS011;7019;50.766;4.474;2022-09-13T00:24:21;7.53;;;6.60;;
13897;SDS011;7019;50.766;4.474;2022-09-13T00:26:49;8.43;;;7.20;;
13897;SDS011;7019;50.766;4.474;2022-09-13T00:29:16;9.57;;;8.53;;
13897;SDS011;7019;50.766;4.474;2022-09-13T00:31:43;10.53;;;9.10;;
13897;SDS011;7019;50.766;4.474;2022-09-13T00:34:10;12.00;;;6.50;;
13897;SDS011;7019;50.766;4.474;2022-09-13T00:36:37;9.37;;;6.40;;
13897;SDS011;7019;50.766;4.474;2022-09-13T00:39:04;7.77;;;5.70;;
13897;SDS011;7019;50.766;4.474;2022-09-13T00:41:31;5.93;;;4.57;;
13897;SDS011;7019;50.766;4.474;2022-09-13T00:44:00;5.60;;;4.50;;
13897;SDS011;7019;50.766;4.474;2022-09-13T00:46:31;5.93;;;4.50;;
13897;SDS011;7019;50.766;4.474;2022-09-13T00:49:03;7.40;;;4.47;;
13897;SDS011;7019;50.766;4.474;2022-09-13T00:51:38;9.93;;;4.67;;
13897;SDS011;7019;50.766;4.474;2022-09-13T00:54:08;6.73;;;3.53;;
13897;SDS011;7019;50.766;4.474;2022-09-13T00:56:36;3.93;;;3.50;;
13897;SDS011;7019;50.766;4.474;2022-09-13T00:59:10;5.03;;;3.83;;
13897;SDS011;7019;50.766;4.474;2022-09-13T01:01:40;5.37;;;4.00;;
13897;SDS011;7019;50.766;4.474;2022-09-13T01:04:11;5.70;;;3.43;;
13897;SDS011;7019;50.766;4.474;2022-09-13T01:06:38;6.10;;;3.27;;
13897;SDS011;7019;50.766;4.474;2022-09-13T01:09:07;5.50;;;3.70;;
13897;SDS011;7019;50.766;4.474;2022-09-13T01:11:38;4.43;;;3.10;;
13897;SDS011;7019;50.766;4.474;2022-09-13T01:14:12;5.80;;;3.40;;
13897;SDS011;7019;50.766;4.474;2022-09-13T01:16:40;5.10;;;3.30;;
13897;SDS011;7019;50.766;4.474;2022-09-13T01:19:07;6.60;;;3.67;;
13897;SDS011;7019;50.766;4.474;2022-09-13T01:25:05;4.77;;;3.63;;
13897;SDS011;7019;50.766;4.474;2022-09-13T01:28:09;3.83;;;3.50;;
13897;SDS011;7019;50.766;4.474;2022-09-13T01:30:50;3.77;;;3.47;;
13897;SDS011;7019;50.766;4.474;2022-09-13T01:33:25;4.10;;;3.20;;
13897;SDS011;7019;50.766;4.474;2022-09-13T01:36:09;4.90;;;3.77;;
13897;SDS011;7019;50.766;4.474;2022-09-13T01:38:51;4.67;;;3.30;;
13897;SDS011;7019;50.766;4.474;2022-09-13T01:41:39;4.50;;;3.20;;
13897;SDS011;7019;50.766;4.474;2022-09-13T01:44:37;6.10;;;3.07;;
13897;SDS011;7019;50.766;4.474;2022-09-13T01:47:15;7.60;;;3.40;;
13897;SDS011;7019;50.766;4.474;2022-09-13T01:49:52;4.97;;;3.53;;
13897;SDS011;7019;50.766;4.474;2022-09-13T01:52:34;5.63;;;3.23;;
13897;SDS011;7019;50.766;4.474;2022-09-13T01:55:07;5.10;;;3.40;;
13897;SDS011;7019;50.766;4.474;2022-09-13T01:57:40;5.67;;;3.50;;
13897;SDS011;7019;50.766;4.474;2022-09-13T02:00:14;3.37;;;3.00;;
13897;SDS011;7019;50.766;4.474;2022-09-13T02:02:45;4.43;;;3.30;;
13897;SDS011;7019;50.766;4.474;2022-09-13T02:05:17;5.70;;;2.97;;
13897;SDS011;7019;50.766;4.474;2022-09-13T02:07:49;3.90;;;3.43;;
13897;SDS011;7019;50.766;4.474;2022-09-13T02:10:24;4.40;;;3.50;;
13897;SDS011;7019;50.766;4.474;2022-09-13T02:12:55;8.57;;;3.50;;
13897;SDS011;7019;50.766;4.474;2022-09-13T02:15:24;4.60;;;3.73;;
13897;SDS011;7019;50.766;4.474;2022-09-13T02:17:58;5.97;;;3.67;;
13897;SDS011;7019;50.766;4.474;2022-09-13T02:20:32;4.03;;;3.50;;
13897;SDS011;7019;50.766;4.474;2022-09-13T02:23:01;5.00;;;3.43;;
13897;SDS011;7019;50.766;4.474;2022-09-13T02:25:31;5.17;;;3.50;;
13897;SDS011;7019;50.766;4.474;2022-09-13T02:28:02;5.73;;;3.80;;
13897;SDS011;7019;50.766;4.474;2022-09-13T02:30:33;8.33;;;3.97;;
13897;SDS011;7019;50.766;4.474;2022-09-13T02:33:09;4.00;;;3.60;;
13897;SDS011;7019;50.766;4.474;2022-09-13T02:35:39;5.07;;;3.90;;
13897;SDS011;7019;50.766;4.474;2022-09-13T02:38:15;5.00;;;3.47;;
13897;SDS011;7019;50.766;4.474;2022-09-13T02:40:48;5.13;;;3.40;;
13897;SDS011;7019;50.766;4.474;2022-09-13T02:43:24;6.07;;;3.73;;
13897;SDS011;7019;50.766;4.474;2022-09-13T02:46:00;5.03;;;3.63;;
13897;SDS011;7019;50.766;4.474;2022-09-13T02:48:51;4.93;;;3.90;;
13897;SDS011;7019;50.766;4.474;2022-09-13T02:51:24;7.53;;;4.40;;
13897;SDS011;7019;50.766;4.474;2022-09-13T02:54:03;7.23;;;4.60;;
13897;SDS011;7019;50.766;4.474;2022-09-13T02:56:40;6.40;;;4.20;;
13897;SDS011;7019;50.766;4.474;2022-09-13T02:59:15;6.17;;;3.93;;
13897;SDS011;7019;50.766;4.474;2022-09-13T03:01:44;5.80;;;3.87;;
13897;SDS011;7019;50.766;4.474;2022-09-13T03:04:16;5.57;;;3.70;;
13897;SDS011;7019;50.766;4.474;2022-09-13T03:06:43;5.50;;;4.10;;
13897;SDS011;7019;50.766;4.474;2022-09-13T03:09:10;6.50;;;4.10;;
13897;SDS011;7019;50.766;4.474;2022-09-13T03:11:41;5.57;;;3.70;;
13897;SDS011;7019;50.766;4.474;2022-09-13T03:14:26;4.13;;;3.37;;
13897;SDS011;7019;50.766;4.474;2022-09-13T03:17:05;5.30;;;3.57;;
13897;SDS011;7019;50.766;4.474;2022-09-13T03:19:44;5.90;;;3.80;;
13897;SDS011;7019;50.766;4.474;2022-09-13T03:22:26;4.40;;;4.00;;
13897;SDS011;7019;50.766;4.474;2022-09-13T03:25:14;4.33;;;3.70;;
13897;SDS011;7019;50.766;4.474;2022-09-13T03:27:53;6.53;;;3.40;;
13897;SDS011;7019;50.766;4.474;2022-09-13T03:30:28;4.77;;;3.77;;
13897;SDS011;7019;50.766;4.474;2022-09-13T03:33:01;4.17;;;3.00;;
13897;SDS011;7019;50.766;4.474;2022-09-13T03:35:35;5.50;;;3.63;;
13897;SDS011;7019;50.766;4.474;2022-09-13T03:38:07;5.03;;;3.60;;
13897;SDS011;7019;50.766;4.474;2022-09-13T03:40:38;4.10;;;3.47;;
13897;SDS011;7019;50.766;4.474;2022-09-13T03:43:12;6.23;;;3.97;;
13897;SDS011;7019;50.766;4.474;2022-09-13T03:45:42;6.83;;;3.50;;
13897;SDS011;7019;50.766;4.474;2022-09-13T03:48:11;4.43;;;3.60;;
13897;SDS011;7019;50.766;4.474;2022-09-13T03:50:41;3.50;;;3.20;;
13897;SDS011;7019;50.766;4.474;2022-09-13T03:53:12;4.23;;;3.17;;
13897;SDS011;7019;50.766;4.474;2022-09-13T03:55:42;4.97;;;3.60;;
13897;SDS011;7019;50.766;4.474;2022-09-13T03:58:10;5.90;;;3.53;;
13897;SDS011;7019;50.766;4.474;2022-09-13T04:00:38;6.20;;;3.70;;
13897;SDS011;7019;50.766;4.474;2022-09-13T04:03:06;3.77;;;3.47;;
13897;SDS011;7019;50.766;4.474;2022-09-13T04:05:34;5.10;;;3.33;;
13897;SDS011;7019;50.766;4.474;2022-09-13T04:08:02;4.70;;;3.73;;
13897;SDS011;7019;50.766;4.474;2022-09-13T04:10:30;4.20;;;2.90;;
13897;SDS011;7019;50.766;4.474;2022-09-13T04:12:58;4.77;;;3.27;;
13897;SDS011;7019;50.766;4.474;2022-09-13T04:15:25;5.40;;;2.97;;
13897;SDS011;7019;50.766;4.474;2022-09-13T04:17:52;4.87;;;3.30;;
13897;SDS011;7019;50.766;4.474;2022-09-13T04:20:19;11.90;;;3.63;;
13897;SDS011;7019;50.766;4.474;2022-09-13T04:22:49;4.17;;;3.50;;
13897;SDS011;7019;50.766;4.474;2022-09-13T04:25:18;4.53;;;2.80;;
13897;SDS011;7019;50.766;4.474;2022-09-13T04:27:46;5.00;;;3.27;;
13897;SDS011;7019;50.766;4.474;2022-09-13T04:30:13;4.63;;;3.27;;
13897;SDS011;7019;50.766;4.474;2022-09-13T04:32:41;5.10;;;3.40;;
13897;SDS011;7019;50.766;4.474;2022-09-13T04:35:09;5.53;;;4.07;;
13897;SDS011;7019;50.766;4.474;2022-09-13T04:37:37;6.87;;;4.10;;
13897;SDS011;7019;50.766;4.474;2022-09-13T04:40:04;7.03;;;3.37;;
13897;SDS011;7019;50.766;4.474;2022-09-13T04:42:34;3.30;;;3.00;;
13897;SDS011;7019;50.766;4.474;2022-09-13T04:45:01;5.47;;;3.37;;
13897;SDS011;7019;50.766;4.474;2022-09-13T04:47:28;4.93;;;3.30;;
13897;SDS011;7019;50.766;4.474;2022-09-13T04:49:56;6.13;;;3.70;;
13897;SDS011;7019;50.766;4.474;2022-09-13T04:52:23;3.30;;;3.00;;
13897;SDS011;7019;50.766;4.474;2022-09-13T04:54:50;4.57;;;3.00;;
13897;SDS011;7019;50.766;4.474;2022-09-13T04:57:18;4.87;;;3.10;;
13897;SDS011;7019;50.766;4.474;2022-09-13T04:59:46;4.30;;;3.03;;
13897;SDS011;7019;50.766;4.474;2022-09-13T05:02:13;3.57;;;3.00;;
13897;SDS011;7019;50.766;4.474;2022-09-13T05:04:40;3.37;;;2.80;;
13897;SDS011;7019;50.766;4.474;2022-09-13T05:07:07;3.47;;;2.97;;
13897;SDS011;7019;50.766;4.474;2022-09-13T05:09:34;7.03;;;3.23;;
13897;SDS011;7019;50.766;4.474;2022-09-13T05:12:01;5.17;;;3.23;;
13897;SDS011;7019;50.766;4.474;2022-09-13T05:14:28;7.57;;;3.03;;
13897;SDS011;7019;50.766;4.474;2022-09-13T05:16:57;4.60;;;3.17;;
13897;SDS011;7019;50.766;4.474;2022-09-13T05:19:24;3.77;;;3.13;;
13897;SDS011;7019;50.766;4.474;2022-09-13T05:21:51;5.70;;;3.20;;
13897;SDS011;7019;50.766;4.474;2022-09-13T05:24:18;3.43;;;2.83;;
13897;SDS011;7019;50.766;4.474;2022-09-13T05:26:45;6.13;;;3.10;;
13897;SDS011;7019;50.766;4.474;2022-09-13T05:29:12;3.10;;;2.60;;
13897;SDS011;7019;50.766;4.474;2022-09-13T05:31:40;8.27;;;3.23;;
13897;SDS011;7019;50.766;4.474;2022-09-13T05:34:10;6.90;;;3.10;;
13897;SDS011;7019;50.766;4.474;2022-09-13T05:36:39;6.37;;;3.47;;
13897;SDS011;7019;50.766;4.474;2022-09-13T05:39:06;4.43;;;3.17;;
13897;SDS011;7019;50.766;4.474;2022-09-13T05:41:37;5.63;;;3.53;;
13897;SDS011;7019;50.766;4.474;2022-09-13T05:44:04;5.33;;;3.43;;
13897;SDS011;7019;50.766;4.474;2022-09-13T05:46:31;4.50;;;3.20;;
13897;SDS011;7019;50.766;4.474;2022-09-13T05:48:58;6.03;;;3.80;;
13897;SDS011;7019;50.766;4.474;2022-09-13T05:51:27;6.67;;;3.43;;
13897;SDS011;7019;50.766;4.474;2022-09-13T05:53:54;8.33;;;3.57;;
13897;SDS011;7019;50.766;4.474;2022-09-13T05:56:22;7.97;;;3.70;;
13897;SDS011;7019;50.766;4.474;2022-09-13T05:58:51;5.37;;;3.70;;
13897;SDS011;7019;50.766;4.474;2022-09-13T06:01:19;4.97;;;2.90;;
13897;SDS011;7019;50.766;4.474;2022-09-13T06:03:48;9.17;;;3.80;;
13897;SDS011;7019;50.766;4.474;2022-09-13T06:06:15;5.67;;;3.97;;
13897;SDS011;7019;50.766;4.474;2022-09-13T06:08:44;11.23;;;3.73;;
13897;SDS011;7019;50.766;4.474;2022-09-13T06:11:12;12.47;;;4.90;;
13897;SDS011;7019;50.766;4.474;2022-09-13T06:13:40;7.40;;;4.50;;
13897;SDS011;7019;50.766;4.474;2022-09-13T06:16:08;11.20;;;4.23;;
13897;SDS011;7019;50.766;4.474;2022-09-13T06:18:36;9.87;;;4.73;;
13897;SDS011;7019;50.766;4.474;2022-09-13T06:21:05;6.77;;;3.80;;
13897;SDS011;7019;50.766;4.474;2022-09-13T06:23:34;5.33;;;3.47;;
13897;SDS011;7019;50.766;4.474;2022-09-13T06:26:03;5.63;;;3.77;;
13897;SDS011;7019;50.766;4.474;2022-09-13T06:28:32;5.33;;;3.40;;
13897;SDS011;7019;50.766;4.474;2022-09-13T06:31:00;6.63;;;3.70;;
13897;SDS011;7019;50.766;4.474;2022-09-13T06:33:28;4.97;;;3.57;;
13897;SDS011;7019;50.766;4.474;2022-09-13T06:35:58;5.50;;;4.20;;
13897;SDS011;7019;50.766;4.474;2022-09-13T06:38:26;6.73;;;3.70;;
13897;SDS011;7019;50.766;4.474;2022-09-13T06:41:04;7.83;;;4.60;;
13897;SDS011;7019;50.766;4.474;2022-09-13T06:43:32;8.17;;;3.40;;
13897;SDS011;7019;50.766;4.474;2022-09-13T06:46:00;9.77;;;5.17;;
13897;SDS011;7019;50.766;4.474;2022-09-13T06:48:30;10.97;;;3.80;;
13897;SDS011;7019;50.766;4.474;2022-09-13T06:50:58;5.50;;;4.10;;
13897;SDS011;7019;50.766;4.474;2022-09-13T06:53:27;4.93;;;3.90;;
13897;SDS011;7019;50.766;4.474;2022-09-13T06:56:00;6.07;;;4.20;;
13897;SDS011;7019;50.766;4.474;2022-09-13T06:58:31;5.73;;;4.03;;
13897;SDS011;7019;50.766;4.474;2022-09-13T07:01:06;9.90;;;4.30;;
13897;SDS011;7019;50.766;4.474;2022-09-13T07:03:39;6.07;;;4.13;;
13897;SDS011;7019;50.766;4.474;2022-09-13T07:06:08;8.67;;;3.77;;
13897;SDS011;7019;50.766;4.474;2022-09-13T07:08:36;6.53;;;3.90;;
13897;SDS011;7019;50.766;4.474;2022-09-13T07:11:03;6.60;;;3.63;;
13897;SDS011;7019;50.766;4.474;2022-09-13T07:13:38;6.40;;;4.13;;
13897;SDS011;7019;50.766;4.474;2022-09-13T07:16:06;6.10;;;4.47;;
13897;SDS011;7019;50.766;4.474;2022-09-13T07:18:34;8.23;;;4.67;;
13897;SDS011;7019;50.766;4.474;2022-09-13T07:21:02;6.67;;;4.57;;
13897;SDS011;7019;50.766;4.474;2022-09-13T07:23:30;6.00;;;4.30;;
13897;SDS011;7019;50.766;4.474;2022-09-13T07:25:58;7.50;;;4.60;;
13897;SDS011;7019;50.766;4.474;2022-09-13T07:28:28;9.87;;;3.87;;
13897;SDS011;7019;50.766;4.474;2022-09-13T07:31:08;7.40;;;5.27;;
13897;SDS011;7019;50.766;4.474;2022-09-13T07:33:37;7.97;;;4.30;;
13897;SDS011;7019;50.766;4.474;2022-09-13T07:36:09;5.20;;;3.93;;
13897;SDS011;7019;50.766;4.474;2022-09-13T07:38:39;4.97;;;4.10;;
13897;SDS011;7019;50.766;4.474;2022-09-13T07:41:09;5.53;;;4.20;;
13897;SDS011;7019;50.766;4.474;2022-09-13T07:43:37;4.70;;;3.67;;
13897;SDS011;7019;50.766;4.474;2022-09-13T07:46:07;8.37;;;4.90;;
13897;SDS011;7019;50.766;4.474;2022-09-13T07:48:35;7.30;;;5.00;;
13897;SDS011;7019;50.766;4.474;2022-09-13T07:51:04;9.43;;;4.60;;
13897;SDS011;7019;50.766;4.474;2022-09-13T07:53:33;6.67;;;4.17;;
13897;SDS011;7019;50.766;4.474;2022-09-13T07:56:02;5.73;;;4.07;;
13897;SDS011;7019;50.766;4.474;2022-09-13T07:58:34;8.43;;;3.90;;
13897;SDS011;7019;50.766;4.474;2022-09-13T08:01:03;7.33;;;6.60;;
13897;SDS011;7019;50.766;4.474;2022-09-13T08:03:34;6.60;;;3.70;;
13897;SDS011;7019;50.766;4.474;2022-09-13T08:06:01;7.10;;;3.73;;
13897;SDS011;7019;50.766;4.474;2022-09-13T08:08:30;5.90;;;3.83;;
13897;SDS011;7019;50.766;4.474;2022-09-13T08:10:58;3.27;;;2.57;;
13897;SDS011;7019;50.766;4.474;2022-09-13T08:13:25;7.90;;;3.43;;
13897;SDS011;7019;50.766;4.474;2022-09-13T08:15:53;4.57;;;2.93;;
13897;SDS011;7019;50.766;4.474;2022-09-13T08:18:20;6.20;;;3.07;;
13897;SDS011;7019;50.766;4.474;2022-09-13T08:20:49;4.57;;;2.93;;
13897;SDS011;7019;50.766;4.474;2022-09-13T08:23:16;4.20;;;2.80;;
13897;SDS011;7019;50.766;4.474;2022-09-13T08:25:42;4.37;;;3.03;;
13897;SDS011;7019;50.766;4.474;2022-09-13T08:28:12;3.97;;;2.93;;
13897;SDS011;7019;50.766;4.474;2022-09-13T08:30:41;5.83;;;3.00;;
13897;SDS011;7019;50.766;4.474;2022-09-13T08:33:08;4.30;;;3.20;;
13897;SDS011;7019;50.766;4.474;2022-09-13T08:35:37;5.57;;;3.83;;
13897;SDS011;7019;50.766;4.474;2022-09-13T08:38:06;4.97;;;4.53;;
13897;SDS011;7019;50.766;4.474;2022-09-13T08:40:37;6.90;;;3.73;;
13897;SDS011;7019;50.766;4.474;2022-09-13T08:43:08;3.60;;;2.73;;
13897;SDS011;7019;50.766;4.474;2022-09-13T08:45:48;5.93;;;2.73;;
13897;SDS011;7019;50.766;4.474;2022-09-13T08:48:17;6.07;;;3.07;;
13897;SDS011;7019;50.766;4.474;2022-09-13T08:50:48;4.47;;;2.50;;
13897;SDS011;7019;50.766;4.474;2022-09-13T08:53:24;3.00;;;2.60;;
13897;SDS011;7019;50.766;4.474;2022-09-13T08:55:56;4.17;;;3.03;;
13897;SDS011;7019;50.766;4.474;2022-09-13T09:01:27;4.53;;;3.20;;
13897;SDS011;7019;50.766;4.474;2022-09-13T09:04:02;6.20;;;2.97;;
13897;SDS011;7019;50.766;4.474;2022-09-13T09:06:38;5.60;;;3.17;;
13897;SDS011;7019;50.766;4.474;2022-09-13T09:09:07;4.27;;;3.17;;
13897;SDS011;7019;50.766;4.474;2022-09-13T09:11:40;6.97;;;2.73;;
13897;SDS011;7019;50.766;4.474;2022-09-13T09:14:13;6.97;;;3.77;;
13897;SDS011;7019;50.766;4.474;2022-09-13T09:16:44;4.67;;;3.33;;
13897;SDS011;7019;50.766;4.474;2022-09-13T09:19:18;7.37;;;3.17;;
13897;SDS011;7019;50.766;4.474;2022-09-13T09:21:48;4.70;;;3.20;;
13897;SDS011;7019;50.766;4.474;2022-09-13T09:24:20;7.10;;;3.03;;
13897;SDS011;7019;50.766;4.474;2022-09-13T09:26:49;4.10;;;2.80;;
13897;SDS011;7019;50.766;4.474;2022-09-13T09:29:18;5.23;;;2.87;;
13897;SDS011;7019;50.766;4.474;2022-09-13T09:31:53;6.63;;;2.70;;
13897;SDS011;7019;50.766;4.474;2022-09-13T09:34:31;4.27;;;3.27;;
13897;SDS011;7019;50.766;4.474;2022-09-13T09:37:10;6.90;;;2.90;;
13897;SDS011;7019;50.766;4.474;2022-09-13T09:39:48;8.73;;;2.87;;
13897;SDS011;7019;50.766;4.474;2022-09-13T09:42:17;5.20;;;2.80;;
13897;SDS011;7019;50.766;4.474;2022-09-13T09:44:49;4.50;;;2.40;;
13897;SDS011;7019;50.766;4.474;2022-09-13T09:47:19;7.03;;;3.10;;
13897;SDS011;7019;50.766;4.474;2022-09-13T09:49:49;5.23;;;2.77;;
13897;SDS011;7019;50.766;4.474;2022-09-13T09:52:36;8.93;;;2.87;;
13897;SDS011;7019;50.766;4.474;2022-09-13T09:55:21;6.67;;;3.57;;
13897;SDS011;7019;50.766;4.474;2022-09-13T09:57:53;6.17;;;3.17;;
13897;SDS011;7019;50.766;4.474;2022-09-13T10:00:23;5.40;;;3.27;;
13897;SDS011;7019;50.766;4.474;2022-09-13T10:02:52;5.87;;;3.30;;
13897;SDS011;7019;50.766;4.474;2022-09-13T10:05:22;5.80;;;3.30;;
13897;SDS011;7019;50.766;4.474;2022-09-13T10:07:54;4.30;;;3.10;;
13897;SDS011;7019;50.766;4.474;2022-09-13T10:10:27;5.73;;;3.33;;
13897;SDS011;7019;50.766;4.474;2022-09-13T10:13:01;7.63;;;2.87;;
13897;SDS011;7019;50.766;4.474;2022-09-13T10:15:31;4.47;;;3.20;;
13897;SDS011;7019;50.766;4.474;2022-09-13T10:18:04;5.47;;;2.90;;
13897;SDS011;7019;50.766;4.474;2022-09-13T10:20:38;7.67;;;3.20;;
13897;SDS011;7019;50.766;4.474;2022-09-13T10:23:10;5.95;;;3.47;;
13897;SDS011;7019;50.766;4.474;2022-09-13T10:25:45;8.50;;;3.33;;
13897;SDS011;7019;50.766;4.474;2022-09-13T10:28:26;5.00;;;3.33;;
13897;SDS011;7019;50.766;4.474;2022-09-13T10:30:55;7.17;;;3.30;;
13897;SDS011;7019;50.766;4.474;2022-09-13T10:33:25;6.10;;;3.33;;
13897;SDS011;7019;50.766;4.474;2022-09-13T10:35:55;5.57;;;2.93;;
13897;SDS011;7019;50.766;4.474;2022-09-13T10:38:25;5.60;;;2.90;;
13897;SDS011;7019;50.766;4.474;2022-09-13T10:40:57;9.20;;;3.50;;
13897;SDS011;7019;50.766;4.474;2022-09-13T10:43:27;7.23;;;3.30;;
13897;SDS011;7019;50.766;4.474;2022-09-13T10:45:56;5.03;;;3.40;;
13897;SDS011;7019;50.766;4.474;2022-09-13T10:48:25;5.53;;;3.80;;
13897;SDS011;7019;50.766;4.474;2022-09-13T10:51:05;9.17;;;3.73;;
13897;SDS011;7019;50.766;4.474;2022-09-13T10:53:36;6.03;;;3.40;;
13897;SDS011;7019;50.766;4.474;2022-09-13T10:56:17;6.03;;;3.60;;
13897;SDS011;7019;50.766;4.474;2022-09-13T10:58:45;5.73;;;4.10;;
13897;SDS011;7019;50.766;4.474;2022-09-13T11:01:30;6.43;;;3.57;;
13897;SDS011;7019;50.766;4.474;2022-09-13T11:04:21;5.30;;;3.40;;
13897;SDS011;7019;50.766;4.474;2022-09-13T11:07:15;3.73;;;3.10;;
13897;SDS011;7019;50.766;4.474;2022-09-13T11:09:51;4.77;;;3.33;;
13897;SDS011;7019;50.766;4.474;2022-09-13T11:12:28;7.40;;;3.07;;
13897;SDS011;7019;50.766;4.474;2022-09-13T11:15:03;4.87;;;2.90;;
13897;SDS011;7019;50.766;4.474;2022-09-13T11:17:50;4.27;;;3.10;;
13897;SDS011;7019;50.766;4.474;2022-09-13T11:20:31;5.13;;;3.10;;
13897;SDS011;7019;50.766;4.474;2022-09-13T11:26:08;6.03;;;3.03;;
13897;SDS011;7019;50.766;4.474;2022-09-13T11:28:50;6.47;;;3.33;;
13897;SDS011;7019;50.766;4.474;2022-09-13T11:31:32;7.47;;;3.00;;
13897;SDS011;7019;50.766;4.474;2022-09-13T11:34:20;11.57;;;3.33;;
13897;SDS011;7019;50.766;4.474;2022-09-13T11:37:04;6.43;;;3.10;;
13897;SDS011;7019;50.766;4.474;2022-09-13T11:39:42;5.07;;;3.07;;
13897;SDS011;7019;50.766;4.474;2022-09-13T11:42:22;5.70;;;2.77;;
13897;SDS011;7019;50.766;4.474;2022-09-13T11:45:13;4.73;;;2.73;;
13897;SDS011;7019;50.766;4.474;2022-09-13T11:47:47;4.90;;;3.00;;
13897;SDS011;7019;50.766;4.474;2022-09-13T11:50:34;6.37;;;3.03;;
13897;SDS011;7019;50.766;4.474;2022-09-13T11:53:18;4.33;;;3.20;;
13897;SDS011;7019;50.766;4.474;2022-09-13T11:55:58;4.40;;;2.67;;
13897;SDS011;7019;50.766;4.474;2022-09-13T11:58:31;6.07;;;3.13;;
13897;SDS011;7019;50.766;4.474;2022-09-13T12:01:04;4.20;;;2.77;;
13897;SDS011;7019;50.766;4.474;2022-09-13T12:03:36;4.53;;;3.37;;
13897;SDS011;7019;50.766;4.474;2022-09-13T12:06:10;6.93;;;3.20;;
13897;SDS011;7019;50.766;4.474;2022-09-13T12:08:41;6.60;;;3.00;;
13897;SDS011;7019;50.766;4.474;2022-09-13T12:11:12;10.93;;;3.27;;
13897;SDS011;7019;50.766;4.474;2022-09-13T12:13:44;3.77;;;2.80;;
13897;SDS011;7019;50.766;4.474;2022-09-13T12:16:17;4.50;;;3.13;;
13897;SDS011;7019;50.766;4.474;2022-09-13T12:18:49;3.47;;;3.17;;
13897;SDS011;7019;50.766;4.474;2022-09-13T12:21:21;4.20;;;3.27;;
13897;SDS011;7019;50.766;4.474;2022-09-13T12:23:53;6.10;;;3.83;;
13897;SDS011;7019;50.766;4.474;2022-09-13T12:26:29;4.13;;;3.17;;
13897;SDS011;7019;50.766;4.474;2022-09-13T12:29:02;6.43;;;2.83;;
13897;SDS011;7019;50.766;4.474;2022-09-13T12:31:34;7.93;;;3.40;;
13897;SDS011;7019;50.766;4.474;2022-09-13T12:34:03;5.40;;;3.50;;
13897;SDS011;7019;50.766;4.474;2022-09-13T12:39:23;3.73;;;3.27;;
13897;SDS011;7019;50.766;4.474;2022-09-13T12:42:13;5.03;;;3.17;;
13897;SDS011;7019;50.766;4.474;2022-09-13T12:44:58;4.63;;;3.10;;
13897;SDS011;7019;50.766;4.474;2022-09-13T12:50:43;6.47;;;3.40;;
13897;SDS011;7019;50.766;4.474;2022-09-13T12:53:33;5.70;;;3.00;;
13897;SDS011;7019;50.766;4.474;2022-09-13T12:59:13;4.87;;;3.00;;
13897;SDS011;7019;50.766;4.474;2022-09-13T13:01:54;5.47;;;3.23;;
13897;SDS011;7019;50.766;4.474;2022-09-13T13:04:24;5.40;;;2.93;;
13897;SDS011;7019;50.766;4.474;2022-09-13T13:06:54;6.10;;;3.27;;
13897;SDS011;7019;50.766;4.474;2022-09-13T13:09:27;6.63;;;3.70;;
13897;SDS011;7019;50.766;4.474;2022-09-13T13:12:02;9.47;;;6.63;;
13897;SDS011;7019;50.766;4.474;2022-09-13T13:14:46;6.83;;;3.07;;
13897;SDS011;7019;50.766;4.474;2022-09-13T13:23:19;4.37;;;2.67;;
13897;SDS011;7019;50.766;4.474;2022-09-13T13:25:56;6.60;;;3.20;;
13897;SDS011;7019;50.766;4.474;2022-09-13T13:31:33;6.27;;;3.33;;
13897;SDS011;7019;50.766;4.474;2022-09-13T13:48:51;8.20;;;3.40;;
13897;SDS011;7019;50.766;4.474;2022-09-13T13:51:22;3.73;;;2.50;;
13897;SDS011;7019;50.766;4.474;2022-09-13T13:53:53;6.67;;;3.13;;
13897;SDS011;7019;50.766;4.474;2022-09-13T13:56:28;4.03;;;3.17;;
13897;SDS011;7019;50.766;4.474;2022-09-13T13:59:12;7.53;;;3.17;;
13897;SDS011;7019;50.766;4.474;2022-09-13T14:01:46;10.97;;;3.50;;
13897;SDS011;7019;50.766;4.474;2022-09-13T14:10:44;7.37;;;3.70;;
13897;SDS011;7019;50.766;4.474;2022-09-13T14:13:19;3.37;;;2.90;;
13897;SDS011;7019;50.766;4.474;2022-09-13T14:16:00;4.07;;;3.23;;
13897;SDS011;7019;50.766;4.474;2022-09-13T14:18:51;5.63;;;3.20;;
13897;SDS011;7019;50.766;4.474;2022-09-13T14:21:26;5.40;;;3.13;;
13897;SDS011;7019;50.766;4.474;2022-09-13T14:24:08;4.90;;;3.50;;
13897;SDS011;7019;50.766;4.474;2022-09-13T14:26:42;5.93;;;4.10;;
13897;SDS011;7019;50.766;4.474;2022-09-13T14:29:11;3.93;;;3.50;;
13897;SDS011;7019;50.766;4.474;2022-09-13T14:31:45;5.80;;;4.47;;
13897;SDS011;7019;50.766;4.474;2022-09-13T14:34:21;5.47;;;3.83;;
13897;SDS011;7019;50.766;4.474;2022-09-13T14:36:53;6.93;;;4.50;;
13897;SDS011;7019;50.766;4.474;2022-09-13T14:39:21;7.60;;;4.17;;
13897;SDS011;7019;50.766;4.474;2022-09-13T14:41:56;9.80;;;7.50;;
13897;SDS011;7019;50.766;4.474;2022-09-13T14:44:25;10.80;;;3.97;;
13897;SDS011;7019;50.766;4.474;2022-09-13T14:46:56;7.27;;;4.10;;
13897;SDS011;7019;50.766;4.474;2022-09-13T14:49:32;7.53;;;4.13;;
13897;SDS011;7019;50.766;4.474;2022-09-13T14:52:04;5.53;;;4.10;;
13897;SDS011;7019;50.766;4.474;2022-09-13T14:54:36;6.23;;;3.87;;
13897;SDS011;7019;50.766;4.474;2022-09-13T14:57:05;7.67;;;5.00;;
13897;SDS011;7019;50.766;4.474;2022-09-13T14:59:41;8.33;;;3.60;;
13897;SDS011;7019;50.766;4.474;2022-09-13T15:02:16;5.47;;;3.43;;
13897;SDS011;7019;50.766;4.474;2022-09-13T15:04:49;4.57;;;3.63;;
13897;SDS011;7019;50.766;4.474;2022-09-13T15:07:19;5.23;;;3.93;;
13897;SDS011;7019;50.766;4.474;2022-09-13T15:09:49;6.57;;;3.63;;
13897;SDS011;7019;50.766;4.474;2022-09-13T15:12:21;4.53;;;4.07;;
13897;SDS011;7019;50.766;4.474;2022-09-13T15:17:52;6.37;;;4.57;;
13897;SDS011;7019;50.766;4.474;2022-09-13T15:20:20;7.23;;;5.10;;
13897;SDS011;7019;50.766;4.474;2022-09-13T15:22:48;5.30;;;4.80;;
13897;SDS011;7019;50.766;4.474;2022-09-13T15:25:19;7.97;;;5.63;;
13897;SDS011;7019;50.766;4.474;2022-09-13T15:27:50;6.73;;;4.37;;
13897;SDS011;7019;50.766;4.474;2022-09-13T15:30:21;6.40;;;4.73;;
13897;SDS011;7019;50.766;4.474;2022-09-13T15:33:03;7.30;;;5.00;;
13897;SDS011;7019;50.766;4.474;2022-09-13T15:35:34;5.73;;;4.27;;
13897;SDS011;7019;50.766;4.474;2022-09-13T15:38:21;6.47;;;4.30;;
13897;SDS011;7019;50.766;4.474;2022-09-13T15:40:56;7.17;;;4.63;;
13897;SDS011;7019;50.766;4.474;2022-09-13T15:43:26;10.47;;;5.23;;
13897;SDS011;7019;50.766;4.474;2022-09-13T15:45:55;12.20;;;5.03;;
13897;SDS011;7019;50.766;4.474;2022-09-13T15:48:25;7.07;;;5.00;;
13897;SDS011;7019;50.766;4.474;2022-09-13T15:51:07;8.63;;;4.50;;
13897;SDS011;7019;50.766;4.474;2022-09-13T15:53:36;8.93;;;4.70;;
13897;SDS011;7019;50.766;4.474;2022-09-13T15:56:05;5.63;;;4.57;;
13897;SDS011;7019;50.766;4.474;2022-09-13T15:58:33;5.33;;;4.67;;
13897;SDS011;7019;50.766;4.474;2022-09-13T16:01:02;4.93;;;4.20;;
13897;SDS011;7019;50.766;4.474;2022-09-13T16:03:31;7.77;;;4.50;;
13897;SDS011;7019;50.766;4.474;2022-09-13T16:05:58;3.57;;;3.20;;
13897;SDS011;7019;50.766;4.474;2022-09-13T16:08:25;5.50;;;4.07;;
13897;SDS011;7019;50.766;4.474;2022-09-13T16:10:52;8.13;;;4.07;;
13897;SDS011;7019;50.766;4.474;2022-09-13T16:13:19;5.20;;;4.03;;
13897;SDS011;7019;50.766;4.474;2022-09-13T16:15:47;9.30;;;4.47;;
13897;SDS011;7019;50.766;4.474;2022-09-13T16:18:14;6.93;;;4.47;;
13897;SDS011;7019;50.766;4.474;2022-09-13T16:20:43;6.93;;;4.40;;
13897;SDS011;7019;50.766;4.474;2022-09-13T16:23:11;4.43;;;4.03;;